Tucson, AZ (85707)

8:04 PM MST on July 29, 2015 (GMT -0700)
Sam Hughes | | Change Station
CLOSE
Current Station
Personal Weather Station
Location: Tucson, AZ
Elevation: 2484 ft
Nearby Weather Stations

Elev 2484 ft 32.23 °N, 110.93 °W | Updated 8 minutes ago

Rain
Rain
76.3 °F
Feels Like 78 °F
N
6.8
Wind Variable Wind from SSE

Today
High -- | Low -- °F
--% Chance of Precip.
Yesterday
High -- | Low -- °F
Precip. -- in
5:36 AM 7:23 PM
Waxing Gibbous, 98% visible
Pressure 30.05 in
Visibility 10.0 miles
Clouds Clear
Heat Index 78 °F
Dew Point 66 °F
Humidity 71%
Rainfall 0.00 in
Snow Depth Not available.
UV 0 out of 12
Pollen 3.90 out of 12
Air Quality Not available.
Flu Activity Not available.
SPECI KDMA 300213Z AUTO 12015KT 10SM CLR 24/21 A3005 RMK AO2 LTG DSNT NE AND SE DZE01RAB01

More Conditions Fewer Conditions

Pressure 30.05 in
Visibility 10.0 miles
Clouds Clear
Heat Index 78 °F
Dew Point 66 °F
Humidity 71%
Rainfall 0.00 in
Snow Depth Not available.
UV 0 out of 12
Pollen 3.90 out of 12
Air Quality Not available.
Flu Activity Not available.
SPECI KDMA 300213Z AUTO 12015KT 10SM CLR 24/21 A3005 RMK AO2 LTG DSNT NE AND SE DZE01RAB01

More Conditions Fewer Conditions

Nowcast | as of 7:31 PM MST on July 29, 2015

Scattered showers and thunderstorms will continue to move northwest across Southeast Arizona this evening. Through 930 PM...the largest cluster of storms will be focused along Highway 191 near Interstate 10 and south toward Elfrida. Another cluster of storms will be focused near Green Valley. The strongest storms will be capable of producing heavy rainfall of over a half inch in less than 30 minutes...which could quickly pond in low spots and flow across low water crossings. Frequent lightning strikes will also occur with these thunderstorms. A weakening trend in coverage and intensity is expected as the evening progresses.

×

10-Day Weather Forecast

×

Almanac

Astronomy

Jul. 29, 2015 Rise Set
Actual Time
Civil Twilight
Nautical Twilight
Astronomical Twilight
Moon
Length of Visible Light
Length of Day
Tomorrow will be .
, % of the Moon is Illuminated

Today's Extremes

State Highs State Lows

Community

WunderPhotos

Upload Photos

1,842,282 photos uploaded!

WunderBlogs® & News

Nearby

Air Quality

  Air Quality AQ Index Pollutant
Not available.

Snow Depth

Station Depth Elevation

Earthquake Activity

City Distance Mag. Time & Date
Minimum magnitude displayed is 2.5.

Coastal Water Temperatures

Place Temperature

Stations

Nearby Weather Stations

Station Location Temp. Windchill Dew Point Humidity Wind Precip. Elev Updated Type